createdAt,value
2022-08-04T00:00:07.582Z,100203.59
2022-08-04T00:01:28.573Z,100194.22
2022-08-04T00:03:01.839Z,100188.13
2022-08-04T00:04:13.212Z,100195.66
2022-08-04T00:05:53.169Z,100195.22
2022-08-04T00:07:04.492Z,100191.94
2022-08-04T00:08:18.866Z,100185.00
2022-08-04T00:09:35.661Z,100195.88
2022-08-04T00:10:42.103Z,100197.03
2022-08-04T00:11:49.276Z,100192.13
2022-08-04T00:12:55.011Z,100194.94
2022-08-04T00:14:03.866Z,100193.19
2022-08-04T00:15:08.444Z,100199.22
2022-08-04T00:16:17.800Z,100201.56
2022-08-04T00:17:24.354Z,100198.75
2022-08-04T00:18:34.358Z,100194.66
2022-08-04T00:19:42.177Z,100203.84
2022-08-04T00:20:44.827Z,100191.72
2022-08-04T00:21:51.884Z,100193.25
2022-08-04T00:22:54.139Z,100200.13
2022-08-04T00:24:10.900Z,100196.81
2022-08-04T00:25:14.934Z,100203.19
2022-08-04T00:26:17.897Z,100200.72
2022-08-04T00:27:20.255Z,100200.25
2022-08-04T00:28:23.538Z,100198.59
2022-08-04T00:29:27.471Z,100200.63
2022-08-04T00:30:29.709Z,100198.50
2022-08-04T00:31:56.038Z,100208.19
2022-08-04T00:32:58.782Z,100198.44
2022-08-04T00:34:01.501Z,100204.41
2022-08-04T00:35:04.216Z,100201.16
2022-08-04T00:36:06.975Z,100204.34
2022-08-04T00:37:09.809Z,100195.38
2022-08-04T00:38:14.875Z,100204.22
2022-08-04T00:39:19.883Z,100209.88
2022-08-04T00:40:25.064Z,100200.13
2022-08-04T00:42:00.111Z,100201.66
2022-08-04T00:43:49.658Z,100194.25
2022-08-04T00:45:07.594Z,100198.63
2022-08-04T00:46:51.590Z,100196.16
2022-08-04T00:48:22.713Z,100198.53
2022-08-04T00:49:44.482Z,100198.44
2022-08-04T00:51:25.985Z,100198.31
2022-08-04T00:52:55.922Z,100201.88
2022-08-04T00:54:23.133Z,100206.59
2022-08-04T00:55:43.439Z,100207.75
2022-08-04T00:57:33.464Z,100195.56
2022-08-04T00:59:02.800Z,100208.38
2022-08-04T01:00:12.268Z,100203.91
2022-08-04T01:01:59.315Z,100200.13
2022-08-04T01:03:21.098Z,100206.47
2022-08-04T01:04:48.314Z,100203.22
2022-08-04T01:05:53.409Z,100200.75
2022-08-04T01:07:17.608Z,100205.91
2022-08-04T01:09:04.426Z,100205.44
2022-08-04T01:10:25.073Z,100211.78
2022-08-04T01:11:57.380Z,100207.34
2022-08-04T01:13:36.699Z,100206.41
2022-08-04T01:15:03.433Z,100202.28
2022-08-04T01:16:08.646Z,100207.47
2022-08-04T01:17:25.534Z,100195.38
2022-08-04T01:18:36.437Z,100203.34
2022-08-04T01:19:54.545Z,100209.34
2022-08-04T01:21:23.012Z,100205.25
2022-08-04T01:22:34.457Z,100202.78
2022-08-04T01:23:54.910Z,100207.97
2022-08-04T01:25:09.865Z,100196.22
2022-08-04T01:26:43.454Z,100199.41
2022-08-04T01:27:56.015Z,100201.72
2022-08-04T01:29:15.761Z,100206.56
2022-08-04T01:30:19.200Z,100202.91
2022-08-04T01:31:34.768Z,100204.09
2022-08-04T01:32:40.954Z,100201.16
2022-08-04T01:34:03.445Z,100202.34
2022-08-04T01:35:21.840Z,100212.81
2022-08-04T01:36:25.179Z,100207.03
2022-08-04T01:37:33.286Z,100200.59
2022-08-04T01:38:37.568Z,100204.59
2022-08-04T01:39:50.483Z,100204.47
2022-08-04T01:40:55.547Z,100208.09
2022-08-04T01:41:58.798Z,100207.63
2022-08-04T01:43:03.584Z,100210.81
2022-08-04T01:44:07.969Z,100204.34
2022-08-04T01:45:12.324Z,100204.69
2022-08-04T01:46:17.743Z,100207.88
2022-08-04T01:47:21.772Z,100203.41
2022-08-04T01:48:26.704Z,100197.78
2022-08-04T01:49:40.691Z,100204.91
2022-08-04T01:50:44.898Z,100201.28
2022-08-04T01:51:50.589Z,100201.59
2022-08-04T01:52:55.290Z,100198.78
2022-08-04T01:53:57.508Z,100210.41
2022-08-04T01:55:01.658Z,100203.97
2022-08-04T01:56:06.032Z,100204.31
2022-08-04T01:57:37.978Z,100197.50
2022-08-04T01:58:34.731Z,100203.84
2022-08-04T01:59:38.263Z,100201.38
2022-08-04T02:00:47.967Z,100204.19
2022-08-04T02:01:50.508Z,100203.72
2022-08-04T02:02:54.261Z,100198.44
2022-08-04T02:04:21.027Z,100200.44
2022-08-04T02:05:21.979Z,100201.97
2022-08-04T02:06:32.226Z,100200.31
2022-08-04T02:07:51.819Z,100201.50
2022-08-04T02:09:16.102Z,100195.84
2022-08-04T02:10:43.566Z,100199.03
2022-08-04T02:11:56.151Z,100197.38
2022-08-04T02:13:27.207Z,100197.72
2022-08-04T02:14:41.043Z,100197.25
2022-08-04T02:15:54.660Z,100193.63
2022-08-04T02:16:56.915Z,100195.16
2022-08-04T02:18:16.160Z,100198.31
2022-08-04T02:19:32.662Z,100190.22
2022-08-04T02:20:39.801Z,100193.41
2022-08-04T02:21:43.461Z,100187.75
2022-08-04T02:23:06.130Z,100194.56
2022-08-04T02:24:15.311Z,100188.44
2022-08-04T02:25:24.452Z,100189.97
2022-08-04T02:26:30.389Z,100194.78
2022-08-04T02:28:00.371Z,100191.13
2022-08-04T02:29:32.026Z,100185.84
2022-08-04T02:30:44.338Z,100193.84
2022-08-04T02:31:55.630Z,100190.19
2022-08-04T02:33:02.880Z,100186.94
2022-08-04T02:34:14.642Z,100185.28
2022-08-04T02:35:26.524Z,100184.44
2022-08-04T02:36:36.246Z,100186.78
2022-08-04T02:37:41.458Z,100187.16
2022-08-04T02:38:49.796Z,100185.50
2022-08-04T02:39:54.036Z,100181.84
2022-08-04T02:41:00.596Z,100182.19
2022-08-04T02:42:04.970Z,100181.75
2022-08-04T02:43:09.644Z,100183.72
2022-08-04T02:44:12.059Z,100180.44
2022-08-04T02:45:19.257Z,100185.25
2022-08-04T02:46:22.743Z,100183.63
2022-08-04T02:48:30.522Z,100184.78
2022-08-04T02:48:51.195Z,100183.94
2022-08-04T02:49:53.878Z,100179.50
2022-08-04T02:51:01.194Z,100181.47
2022-08-04T02:52:10.334Z,100174.19
2022-08-04T02:53:15.731Z,100181.84
2022-08-04T02:54:32.663Z,100180.19
2022-08-04T02:55:36.040Z,100182.50
2022-08-04T02:56:39.853Z,100174.88
2022-08-04T02:57:45.179Z,100177.69
2022-08-04T02:58:53.104Z,100171.25
2022-08-04T03:00:04.282Z,100171.13
2022-08-04T03:01:06.691Z,100167.13
2022-08-04T03:02:11.939Z,100171.13
2022-08-04T03:03:44.754Z,100169.47
2022-08-04T03:05:03.441Z,100167.81
2022-08-04T03:06:11.741Z,100171.78
2022-08-04T03:07:41.793Z,100174.16
2022-08-04T03:09:18.498Z,100172.50
2022-08-04T03:10:56.897Z,100171.69
2022-08-04T03:12:22.397Z,100173.66
2022-08-04T03:13:36.951Z,100181.31
2022-08-04T03:14:59.304Z,100178.00
2022-08-04T03:16:30.811Z,100176.69
2022-08-04T03:18:01.767Z,100176.25
2022-08-04T03:19:12.879Z,100181.03
2022-08-04T03:21:01.352Z,100170.47
2022-08-04T03:22:28.973Z,100181.25
2022-08-04T03:24:05.821Z,100184.91
2022-08-04T03:25:54.405Z,100190.03
2022-08-04T03:27:02.620Z,100182.75
2022-08-04T03:28:19.212Z,100181.16
2022-08-04T03:30:03.759Z,100179.50
2022-08-04T03:31:36.421Z,100181.47
2022-08-04T03:33:16.076Z,100182.19
2022-08-04T03:34:37.181Z,100188.66
2022-08-04T03:36:05.645Z,100178.91
2022-08-04T03:37:44.661Z,100184.03
2022-08-04T03:39:14.451Z,100180.41
2022-08-04T03:40:27.044Z,100185.19
2022-08-04T03:42:04.299Z,100181.56
2022-08-04T03:43:58.775Z,100189.53
2022-08-04T03:45:36.112Z,100186.72
2022-08-04T03:47:02.840Z,100186.72
2022-08-04T03:48:27.366Z,100184.25
2022-08-04T03:49:43.805Z,100191.88
2022-08-04T03:51:35.149Z,100188.22
2022-08-04T03:53:05.921Z,100189.38
2022-08-04T03:54:29.743Z,100187.41
2022-08-04T03:55:43.997Z,100185.75
2022-08-04T03:57:21.250Z,100191.41
2022-08-04T03:58:39.925Z,100191.41
2022-08-04T04:00:06.663Z,100193.72
2022-08-04T04:01:57.853Z,100189.75
2022-08-04T04:03:35.042Z,100194.56
2022-08-04T04:04:51.919Z,100186.94
2022-08-04T04:06:02.439Z,100189.75
2022-08-04T04:07:17.598Z,100197.84
2022-08-04T04:08:53.315Z,100190.91
2022-08-04T04:10:28.768Z,100188.09
2022-08-04T04:11:57.302Z,100194.22
2022-08-04T04:13:44.637Z,100181.31
2022-08-04T04:14:58.755Z,100192.19
2022-08-04T04:16:31.863Z,100195.84
2022-08-04T04:18:11.638Z,100195.84
2022-08-04T04:19:46.652Z,100192.19
2022-08-04T04:21:36.250Z,100201.94
2022-08-04T04:23:10.351Z,100203.94
2022-08-04T04:24:34.384Z,100198.31
2022-08-04T04:26:15.633Z,100197.97
2022-08-04T04:27:38.474Z,100196.81
2022-08-04T04:28:50.403Z,100202.44
2022-08-04T04:30:11.393Z,100196.47
2022-08-04T04:31:57.663Z,100208.56
2022-08-04T04:33:32.777Z,100201.41
2022-08-04T04:34:45.818Z,100199.41
2022-08-04T04:36:00.277Z,100213.63
2022-08-04T04:37:20.798Z,100200.00
2022-08-04T04:38:28.951Z,100212.56
2022-08-04T04:39:33.367Z,100213.06
2022-08-04T04:40:44.913Z,100206.72
2022-08-04T04:42:06.010Z,100213.66
2022-08-04T04:43:11.039Z,100215.44
2022-08-04T04:44:34.351Z,100214.38
2022-08-04T04:45:53.931Z,100212.50
2022-08-04T04:47:09.772Z,100211.47
2022-08-04T04:48:36.751Z,100206.47
2022-08-04T04:49:51.525Z,100205.94
2022-08-04T04:50:53.718Z,100210.84
2022-08-04T04:52:06.552Z,100210.63
2022-08-04T04:53:27.618Z,100212.06
2022-08-04T04:55:05.227Z,100214.75
2022-08-04T04:56:25.636Z,100214.16
2022-08-04T04:57:54.079Z,100216.41
2022-08-04T04:58:55.727Z,100216.63
2022-08-04T05:00:13.292Z,100207.13
2022-08-04T05:01:24.451Z,100207.34
2022-08-04T05:03:02.380Z,100208.44
2022-08-04T05:04:48.613Z,100207.97
2022-08-04T05:05:59.978Z,100215.03
2022-08-04T05:07:40.001Z,100210.06
2022-08-04T05:08:51.255Z,100215.59
2022-08-04T05:10:27.736Z,100209.78
2022-08-04T05:14:22.801Z,100208.84
2022-08-04T05:14:35.504Z,100216.47
2022-08-04T05:15:08.644Z,100213.53
2022-08-04T05:16:19.151Z,100209.25
2022-08-04T05:17:34.012Z,100217.94
2022-08-04T05:18:40.508Z,100214.50
2022-08-04T05:19:55.970Z,100213.06
2022-08-04T05:21:12.467Z,100214.16
2022-08-04T05:22:32.874Z,100214.00
2022-08-04T05:23:40.710Z,100213.03
2022-08-04T05:24:46.986Z,100213.63
2022-08-04T05:26:12.293Z,100211.06
2022-08-04T05:27:40.512Z,100209.72
2022-08-04T05:28:53.951Z,100210.34
2022-08-04T05:30:03.153Z,100217.81
2022-08-04T05:31:20.547Z,100216.81
2022-08-04T05:32:32.920Z,100209.25
2022-08-04T05:33:47.375Z,100215.94
2022-08-04T05:34:55.839Z,100214.53
2022-08-04T05:36:20.673Z,100205.41
2022-08-04T05:37:25.345Z,100202.38
2022-08-04T05:38:36.889Z,100205.84
2022-08-04T05:39:44.306Z,100199.13
2022-08-04T05:40:50.998Z,100206.63
2022-08-04T05:41:55.373Z,100214.91
2022-08-04T05:43:01.829Z,100202.56
2022-08-04T05:44:04.563Z,100206.81
2022-08-04T05:45:08.726Z,100210.22
2022-08-04T05:46:12.859Z,100205.53
2022-08-04T05:47:16.597Z,100203.28
2022-08-04T05:48:21.881Z,100206.28
2022-08-04T05:49:26.308Z,100209.72
2022-08-04T05:50:31.331Z,100212.31
2022-08-04T05:51:36.255Z,100210.44
2022-08-04T05:52:39.830Z,100207.34
2022-08-04T05:53:44.407Z,100207.47
2022-08-04T05:54:48.154Z,100216.56
2022-08-04T05:55:59.313Z,100211.81
2022-08-04T05:57:04.858Z,100203.91
2022-08-04T05:58:07.726Z,100206.88
2022-08-04T05:59:12.776Z,100211.00
2022-08-04T06:00:39.001Z,100207.53
2022-08-04T06:01:55.353Z,100215.00
2022-08-04T06:03:01.322Z,100217.56
2022-08-04T06:04:11.095Z,100212.44
2022-08-04T06:05:15.599Z,100212.66
2022-08-04T06:06:19.633Z,100216.41
2022-08-04T06:07:22.144Z,100210.41
2022-08-04T06:08:25.360Z,100202.44
2022-08-04T06:09:27.914Z,100212.69
2022-08-04T06:10:34.414Z,100207.94
2022-08-04T06:12:00.433Z,100216.16
2022-08-04T06:13:04.578Z,100218.75
2022-08-04T06:14:13.499Z,100215.97
2022-08-04T06:15:19.514Z,100220.56
2022-08-04T06:16:34.737Z,100212.94
2022-08-04T06:19:58.439Z,100221.50
2022-08-04T06:20:03.222Z,100217.91
2022-08-04T06:20:37.248Z,100215.59
2022-08-04T06:21:48.519Z,100216.94
2022-08-04T06:22:55.614Z,100219.44
2022-08-04T06:24:04.324Z,100215.44
2022-08-04T06:25:08.891Z,100221.22
2022-08-04T06:26:16.158Z,100216.38
2022-08-04T06:27:20.720Z,100218.13
2022-08-04T06:28:27.158Z,100213.28
2022-08-04T06:29:36.506Z,100227.56
2022-08-04T06:30:41.184Z,100214.19
2022-08-04T06:32:28.844Z,100219.53
2022-08-04T06:33:28.063Z,100220.44
2022-08-04T06:34:32.754Z,100220.47
2022-08-04T06:35:35.651Z,100220.94
2022-08-04T06:36:41.063Z,100220.16
2022-08-04T06:37:45.534Z,100225.09
2022-08-04T06:38:48.398Z,100221.47
2022-08-04T06:40:02.926Z,100224.31
2022-08-04T06:41:25.665Z,100216.22
2022-08-04T06:42:31.603Z,100220.69
2022-08-04T06:43:34.046Z,100210.56
2022-08-04T06:44:51.540Z,100212.63
2022-08-04T06:45:55.862Z,100215.09
2022-08-04T06:46:59.432Z,100216.34
2022-08-04T06:48:03.535Z,100227.75
2022-08-04T06:49:06.820Z,100222.47
2022-08-04T06:51:27.495Z,100224.53
2022-08-04T06:51:42.386Z,100219.66
2022-08-04T06:52:49.363Z,100218.00
2022-08-04T06:53:52.513Z,100214.00
2022-08-04T06:54:55.760Z,100209.09
2022-08-04T06:56:00.226Z,100208.28
2022-08-04T06:57:03.214Z,100212.38
2022-08-04T06:58:06.737Z,100214.41
2022-08-04T06:59:12.117Z,100214.38
2022-08-04T07:00:17.518Z,100218.88
2022-08-04T07:01:21.278Z,100205.03
2022-08-04T07:02:30.112Z,100211.13
2022-08-04T07:03:33.019Z,100211.50
2022-08-04T07:04:35.309Z,100213.53
2022-08-04T07:05:38.623Z,100207.81
2022-08-04T07:06:42.293Z,100218.81
2022-08-04T07:07:57.457Z,100215.09
2022-08-04T07:09:01.430Z,100213.03
2022-08-04T07:10:04.538Z,100206.88
2022-08-04T07:11:07.272Z,100220.69
2022-08-04T07:12:10.686Z,100225.97
2022-08-04T07:13:13.917Z,100210.84
2022-08-04T07:14:17.415Z,100204.72
2022-08-04T07:15:21.077Z,100207.94
2022-08-04T07:16:30.851Z,100207.88
2022-08-04T07:17:35.506Z,100203.34
2022-08-04T07:18:37.763Z,100205.31
2022-08-04T07:19:40.034Z,100211.84
2022-08-04T07:20:43.964Z,100205.25
2022-08-04T07:22:19.415Z,100208.09
2022-08-04T07:23:12.092Z,100204.34
2022-08-04T07:24:16.199Z,100201.38
2022-08-04T07:25:18.661Z,100200.06
2022-08-04T07:26:28.823Z,100204.09
2022-08-04T07:27:47.829Z,100211.78
2022-08-04T07:28:51.268Z,100201.91
2022-08-04T07:29:54.109Z,100199.78
2022-08-04T07:30:58.353Z,100200.53
2022-08-04T07:32:01.753Z,100207.00
2022-08-04T07:33:06.930Z,100198.78
2022-08-04T07:34:21.066Z,100198.66
2022-08-04T07:36:05.661Z,100201.47
2022-08-04T07:36:55.657Z,100205.00
2022-08-04T07:37:58.197Z,100194.28
2022-08-04T07:39:01.114Z,100194.25
2022-08-04T07:40:03.970Z,100198.25
2022-08-04T07:42:29.293Z,100198.06
2022-08-04T07:43:32.595Z,100195.09
2022-08-04T07:44:35.906Z,100206.50
2022-08-04T07:45:38.321Z,100194.53
2022-08-04T07:46:41.328Z,100192.38
2022-08-04T07:48:05.125Z,100188.56
2022-08-04T07:49:09.264Z,100190.91
2022-08-04T07:50:12.620Z,100186.28
2022-08-04T07:51:17.227Z,100186.22
2022-08-04T07:52:20.930Z,100194.69
2022-08-04T07:53:55.529Z,100186.41
2022-08-04T07:54:48.994Z,100193.63
2022-08-04T07:55:51.863Z,100194.75
2022-08-04T07:56:54.375Z,100185.22
2022-08-04T07:57:56.781Z,100188.75
2022-08-04T07:59:00.425Z,100187.84
2022-08-04T08:00:06.775Z,100191.47
2022-08-04T08:01:16.165Z,100197.94
2022-08-04T08:02:20.403Z,100188.47
2022-08-04T08:03:24.731Z,100182.22
2022-08-04T08:04:27.418Z,100193.25
2022-08-04T08:05:30.419Z,100192.81
2022-08-04T08:06:39.784Z,100196.06
2022-08-04T08:07:50.413Z,100190.22
2022-08-04T08:08:57.099Z,100191.84
2022-08-04T08:09:59.315Z,100187.28
2022-08-04T08:11:01.709Z,100196.66
2022-08-04T08:12:38.105Z,100190.03
2022-08-04T08:13:31.475Z,100187.13
2022-08-04T08:14:36.227Z,100181.28
2022-08-04T08:15:40.502Z,100178.78
2022-08-04T08:16:43.195Z,100180.31
2022-08-04T08:17:58.264Z,100186.00
2022-08-04T08:19:02.708Z,100174.44
2022-08-04T08:20:07.348Z,100176.00
2022-08-04T08:21:09.614Z,100175.91
2022-08-04T08:22:12.206Z,100177.44
2022-08-04T08:23:14.631Z,100171.25
2022-08-04T08:24:17.406Z,100174.84
2022-08-04T08:25:19.755Z,100174.31
2022-08-04T08:26:23.111Z,100173.84
2022-08-04T08:27:26.292Z,100171.69
2022-08-04T08:28:29.171Z,100168.28
2022-08-04T08:29:33.736Z,100171.09
2022-08-04T08:30:36.410Z,100169.75
2022-08-04T08:31:57.265Z,100174.53
2022-08-04T08:33:05.716Z,100170.66
2022-08-04T08:34:08.604Z,100173.81
2022-08-04T08:35:10.812Z,100171.66
2022-08-04T08:36:37.146Z,100165.75
2022-08-04T08:37:47.775Z,100159.47
2022-08-04T08:39:02.848Z,100165.03
2022-08-04T08:40:37.856Z,100169.81
2022-08-04T08:42:15.109Z,100168.00
2022-08-04T08:44:05.092Z,100168.16
2022-08-04T08:45:30.216Z,100168.81
2022-08-04T08:47:12.785Z,100165.31
2022-08-04T08:48:43.988Z,100167.63
2022-08-04T08:50:04.435Z,100164.56
2022-08-04T08:51:26.261Z,100173.00
2022-08-04T08:53:00.643Z,100167.94
2022-08-04T08:54:30.135Z,100167.75
2022-08-04T08:55:54.181Z,100165.97
2022-08-04T08:57:18.387Z,100170.81
2022-08-04T08:58:32.649Z,100166.47
2022-08-04T08:59:56.511Z,100165.91
2022-08-04T09:01:17.633Z,100172.72
2022-08-04T09:02:45.557Z,100171.69
2022-08-04T09:04:23.979Z,100167.00
2022-08-04T09:06:08.369Z,100164.38
2022-08-04T09:07:31.660Z,100159.19
2022-08-04T09:08:50.719Z,100156.56
2022-08-04T09:10:36.645Z,100158.28
2022-08-04T09:11:56.197Z,100162.13
2022-08-04T09:12:58.337Z,100162.81
2022-08-04T09:14:17.359Z,100161.78
2022-08-04T09:15:22.537Z,100162.84
2022-08-04T09:16:40.963Z,100163.88
2022-08-04T09:17:58.676Z,100161.56
2022-08-04T09:19:09.355Z,100163.88
2022-08-04T09:20:50.604Z,100156.22
2022-08-04T09:22:04.278Z,100153.94
2022-08-04T09:23:16.036Z,100161.53
2022-08-04T09:24:40.222Z,100158.06
2022-08-04T09:25:58.504Z,100152.84
2022-08-04T09:27:03.781Z,100161.28
2022-08-04T09:28:43.673Z,100153.63
2022-08-04T09:30:02.089Z,100148.41
2022-08-04T09:31:15.319Z,100153.94
2022-08-04T09:32:30.698Z,100142.59
2022-08-04T09:33:45.828Z,100149.38
2022-08-04T09:35:28.684Z,100147.84
2022-08-04T09:36:52.213Z,100153.38
2022-08-04T09:38:05.831Z,100147.34
2022-08-04T09:39:17.076Z,100139.34
2022-08-04T09:40:55.656Z,100146.13
2022-08-04T09:42:10.007Z,100140.06
2022-08-04T09:43:28.104Z,100143.97
2022-08-04T09:45:13.464Z,100137.91
2022-08-04T09:46:30.690Z,100129.44
2022-08-04T09:47:54.071Z,100138.66
2022-08-04T09:49:19.741Z,100137.56
2022-08-04T09:50:38.960Z,100137.41
2022-08-04T09:52:17.081Z,100137.13
2022-08-04T09:53:53.188Z,100138.13
2022-08-04T09:55:16.972Z,100136.69
2022-08-04T09:56:41.561Z,100137.66
2022-08-04T09:57:58.371Z,100134.97
2022-08-04T09:59:14.118Z,100128.25
2022-08-04T10:00:17.884Z,100133.41
2022-08-04T10:01:24.533Z,100134.06
2022-08-04T10:02:32.274Z,100127.66
2022-08-04T10:03:42.815Z,100125.41
2022-08-04T10:04:46.860Z,100128.16
2022-08-04T10:06:03.472Z,100133.63
2022-08-04T10:07:30.897Z,100129.78
2022-08-04T10:08:57.330Z,100121.28
2022-08-04T10:10:27.795Z,100125.63
2022-08-04T10:11:56.454Z,100117.59
2022-08-04T10:13:25.983Z,100119.03
2022-08-04T10:14:41.404Z,100120.97
2022-08-04T10:16:14.751Z,100117.44
2022-08-04T10:17:28.667Z,100117.75
2022-08-04T10:18:48.512Z,100118.88
2022-08-04T10:20:03.273Z,100111.31
2022-08-04T10:21:15.738Z,100111.66
2022-08-04T10:22:29.336Z,100104.09
2022-08-04T10:24:01.269Z,100108.09
2022-08-04T10:26:03.629Z,100117.59
2022-08-04T10:27:11.471Z,100105.22
2022-08-04T10:28:21.351Z,100103.97
2022-08-04T10:29:43.149Z,100108.44
2022-08-04T10:31:03.375Z,100108.91
2022-08-04T10:32:23.400Z,100109.38
2022-08-04T10:33:31.179Z,100104.56
2022-08-04T10:34:58.052Z,100109.25
2022-08-04T10:36:04.472Z,100108.56
2022-08-04T10:37:22.315Z,100097.16
2022-08-04T10:38:56.518Z,100102.47
2022-08-04T10:40:29.662Z,100106.50
2022-08-04T10:41:39.920Z,100107.13
2022-08-04T10:42:57.042Z,100104.38
2022-08-04T10:44:26.993Z,100105.47
2022-08-04T10:45:38.954Z,100090.81
2022-08-04T10:46:56.053Z,100098.38
2022-08-04T10:48:37.343Z,100093.56
2022-08-04T10:49:56.312Z,100098.69
2022-08-04T10:51:07.637Z,100096.28
2022-08-04T10:52:24.982Z,100093.06
2022-08-04T10:53:30.369Z,100093.53
2022-08-04T10:54:48.397Z,100086.97
2022-08-04T10:56:07.324Z,100086.28
2022-08-04T10:57:33.540Z,100082.59
2022-08-04T10:58:47.066Z,100089.66
2022-08-04T11:00:03.833Z,100084.00
2022-08-04T11:02:02.941Z,100075.03
2022-08-04T11:03:16.746Z,100075.94
2022-08-04T11:04:26.976Z,100078.03
2022-08-04T11:05:46.893Z,100077.69
2022-08-04T11:06:50.064Z,100075.78
2022-08-04T11:08:01.989Z,100084.13
2022-08-04T11:09:06.163Z,100080.56
2022-08-04T11:10:20.748Z,100079.91
2022-08-04T11:12:00.917Z,100086.66
2022-08-04T11:13:01.989Z,100082.78
2022-08-04T11:14:16.993Z,100075.22
2022-08-04T11:15:32.315Z,100077.44
2022-08-04T11:16:43.486Z,100075.50
2022-08-04T11:17:53.854Z,100077.22
2022-08-04T11:19:45.197Z,100076.06
2022-08-04T11:20:59.292Z,100078.00
2022-08-04T11:22:28.918Z,100095.47
2022-08-04T11:23:36.786Z,100082.78
2022-08-04T11:25:07.170Z,100079.72
2022-08-04T11:26:12.962Z,100076.94
2022-08-04T11:27:20.259Z,100071.66
2022-08-04T11:28:35.563Z,100070.97
2022-08-04T11:30:04.479Z,100071.59
2022-08-04T11:31:18.478Z,100076.25
2022-08-04T11:32:26.819Z,100076.69
2022-08-04T11:33:37.933Z,100071.84
2022-08-04T11:34:52.981Z,100072.78
2022-08-04T11:36:06.197Z,100068.41
2022-08-04T11:37:13.967Z,100064.72
2022-08-04T11:38:37.067Z,100078.34
2022-08-04T11:39:51.203Z,100068.06
2022-08-04T11:41:03.077Z,100078.84
2022-08-04T11:42:27.082Z,100077.22
2022-08-04T11:44:02.938Z,100065.00
2022-08-04T11:45:09.894Z,100065.00
2022-08-04T11:46:23.619Z,100064.19
2022-08-04T11:47:39.880Z,100066.75
2022-08-04T11:48:56.361Z,100064.34
2022-08-04T11:50:28.905Z,100069.75
2022-08-04T11:51:32.934Z,100058.69
2022-08-04T11:52:38.159Z,100067.81
2022-08-04T11:53:43.849Z,100061.69
2022-08-04T11:54:52.637Z,100065.53
2022-08-04T11:56:09.216Z,100063.94
2022-08-04T11:57:12.069Z,100059.09
2022-08-04T11:58:14.658Z,100056.69
2022-08-04T11:59:19.477Z,100065.34
2022-08-04T12:00:22.976Z,100056.34
2022-08-04T12:01:28.113Z,100055.53
2022-08-04T12:03:01.255Z,100055.16
2022-08-04T12:04:13.916Z,100049.38
2022-08-04T12:05:32.408Z,100054.38
2022-08-04T12:06:57.121Z,100054.84
2022-08-04T12:08:22.391Z,100042.16
2022-08-04T12:09:58.415Z,100044.22
2022-08-04T12:11:09.591Z,100044.34
2022-08-04T12:12:39.223Z,100046.44
2022-08-04T12:13:48.967Z,100041.94
2022-08-04T12:15:22.315Z,100047.38
2022-08-04T12:16:36.084Z,100049.91
2022-08-04T12:17:54.360Z,100043.78
2022-08-04T12:18:59.231Z,100045.09
2022-08-04T12:20:31.995Z,100037.69
2022-08-04T12:21:43.510Z,100034.16
2022-08-04T12:22:56.348Z,100040.50
2022-08-04T12:24:26.362Z,100034.06
2022-08-04T12:25:36.700Z,100038.69
2022-08-04T12:26:46.681Z,100042.84
2022-08-04T12:28:06.433Z,100035.94
2022-08-04T12:29:11.853Z,100037.69
2022-08-04T12:30:58.335Z,100037.28
2022-08-04T12:31:49.225Z,100031.19
2022-08-04T12:33:03.848Z,100033.72
2022-08-04T12:34:43.779Z,100032.59
2022-08-04T12:36:06.239Z,100038.81
2022-08-04T12:37:25.256Z,100034.78
2022-08-04T12:38:32.385Z,100032.38
2022-08-04T12:40:27.358Z,100035.28
2022-08-04T12:41:21.838Z,100027.09
2022-08-04T12:42:34.151Z,100033.28
2022-08-04T12:43:42.349Z,100031.34
2022-08-04T12:44:45.496Z,100025.22
2022-08-04T12:45:53.884Z,100031.94
2022-08-04T12:47:26.860Z,100028.72
2022-08-04T12:48:21.808Z,100023.88
2022-08-04T12:49:25.668Z,100019.84
2022-08-04T12:50:28.891Z,100021.09
2022-08-04T12:52:08.454Z,100018.38
2022-08-04T12:53:03.766Z,100021.38
2022-08-04T12:54:08.543Z,100019.75
2022-08-04T12:55:12.085Z,100019.03
2022-08-04T12:56:17.603Z,100016.63
2022-08-04T12:57:23.511Z,100014.66
2022-08-04T12:58:43.834Z,100016.38
2022-08-04T12:59:47.218Z,100005.78
2022-08-04T13:02:08.645Z,100021.59
2022-08-04T13:02:47.524Z,100016.88
2022-08-04T13:03:55.555Z,100011.25
2022-08-04T13:05:04.340Z,100009.72
2022-08-04T13:06:10.581Z,100006.50
2022-08-04T13:07:19.618Z,100010.31
2022-08-04T13:08:24.034Z,100019.50
2022-08-04T13:09:29.952Z,100004.50
2022-08-04T13:10:38.428Z,100005.44
2022-08-04T13:11:44.052Z,100002.69
2022-08-04T13:12:56.547Z,99996.56
2022-08-04T13:14:17.645Z,99998.28
2022-08-04T13:15:25.647Z,100000.00
2022-08-04T13:16:32.095Z,99999.69
2022-08-04T13:18:00.012Z,99997.69
2022-08-04T13:19:05.455Z,99991.59
2022-08-04T13:20:08.482Z,99991.25
2022-08-04T13:21:23.092Z,99997.16
2022-08-04T13:22:28.290Z,99987.34
2022-08-04T13:23:51.740Z,99989.06
2022-08-04T13:25:18.169Z,99994.91
2022-08-04T13:26:43.304Z,99990.03
2022-08-04T13:27:48.226Z,99993.84
2022-08-04T13:28:53.307Z,99986.13
2022-08-04T13:29:59.494Z,99998.22
2022-08-04T13:31:08.328Z,99989.47
2022-08-04T13:32:15.351Z,99988.28
2022-08-04T13:33:18.103Z,99994.16
2022-08-04T13:34:21.677Z,99992.63
2022-08-04T13:35:54.365Z,99989.41
2022-08-04T13:36:49.067Z,99988.31
2022-08-04T13:37:53.166Z,99986.72
2022-08-04T13:39:00.261Z,99990.50
2022-08-04T13:40:05.667Z,99980.72
2022-08-04T13:41:09.488Z,99981.19
2022-08-04T13:42:13.857Z,99981.59
2022-08-04T13:44:16.215Z,99977.59
2022-08-04T13:45:06.423Z,99978.03
2022-08-04T13:46:12.603Z,99981.38
2022-08-04T13:47:20.791Z,99979.75
2022-08-04T13:48:32.183Z,99978.59
2022-08-04T13:49:43.154Z,99969.63
2022-08-04T13:51:05.428Z,99967.53
2022-08-04T13:52:12.415Z,99976.16
2022-08-04T13:53:18.470Z,99974.53
2022-08-04T13:54:25.207Z,99972.13
2022-08-04T13:55:30.818Z,99969.25
2022-08-04T13:56:45.454Z,99976.25
2022-08-04T13:58:19.871Z,99978.72
2022-08-04T13:59:27.242Z,99966.38
2022-08-04T14:00:46.835Z,99965.56
2022-08-04T14:02:04.063Z,99961.88
2022-08-04T14:03:19.003Z,99963.50
2022-08-04T14:04:28.683Z,99960.63
2022-08-04T14:05:58.975Z,99962.22
2022-08-04T14:07:02.584Z,99967.28
2022-08-04T14:08:12.450Z,99962.78
2022-08-04T14:09:19.822Z,99964.03
2022-08-04T14:10:23.172Z,99963.25
2022-08-04T14:12:09.681Z,99960.38
2022-08-04T14:12:58.563Z,99963.72
2022-08-04T14:14:02.112Z,99953.44
2022-08-04T14:15:04.635Z,99950.59
2022-08-04T14:16:19.860Z,99946.88
2022-08-04T14:17:30.327Z,99946.88
2022-08-04T14:18:33.031Z,99948.50
2022-08-04T14:19:47.888Z,99948.50